Portada
METAR-TAF:

METAR-TAF

Aeroports :

Padang, Indonèsia

latitud: 00-47-12S, longitud: 100-16-50E, altitud: 5 m

METAR: manca

Hora: 14:21 (07:21 UTC)

Pronòstic

L'informe es va fer fa 2 hores i 21 minuts, a les 05:00 UTC
Pronòstic vàlid del 28 a les 06 UTC al 29 a les 06 UTC
Vent 5 kt del Sud/Sud-Oest
Visibilitat 10 km o més
Escasses núvols a una alçada de 2000 ft

TAF: WIEE 280500Z 2806/2906 20005KT 9999 FEW020

Observacions i pronòstics meteorològics de més de 4000 aeroports (METAR i TAF).

Les estacions disponibles són els punts grocs i vermells al mapa.

Posi el ratolí al punt desitjat per veure el nom de l'estació.

Feu clic per veure les observacions i els pronòstics meteorològics.

Per canviar el mapa: feu clic els botons verds amb una creu de color negre per apropar; al botó verd amb un guió per allunyar la imatge; o en les fletxes verdes per a mapes adjacents.


METAR-TAF: